sensor_id;sensor_type;location;lat;lon;timestamp;P1;durP1;ratioP1;P2;durP2;ratioP2
24409;SDS011;12543;53.364;-1.504;2023-09-30T00:02:08;3.22;;;0.80;;
24409;SDS011;12543;53.364;-1.504;2023-09-30T00:04:38;2.83;;;0.90;;
24409;SDS011;12543;53.364;-1.504;2023-09-30T00:07:05;2.47;;;0.63;;
24409;SDS011;12543;53.364;-1.504;2023-09-30T00:09:33;3.93;;;0.90;;
24409;SDS011;12543;53.364;-1.504;2023-09-30T00:12:00;1.67;;;0.90;;
24409;SDS011;12543;53.364;-1.504;2023-09-30T00:14:28;3.67;;;1.10;;
24409;SDS011;12543;53.364;-1.504;2023-09-30T00:16:56;4.10;;;1.00;;
24409;SDS011;12543;53.364;-1.504;2023-09-30T00:19:23;3.47;;;1.03;;
24409;SDS011;12543;53.364;-1.504;2023-09-30T00:21:51;7.28;;;0.85;;
24409;SDS011;12543;53.364;-1.504;2023-09-30T00:24:19;4.53;;;1.33;;
24409;SDS011;12543;53.364;-1.504;2023-09-30T00:26:46;2.47;;;0.90;;
24409;SDS011;12543;53.364;-1.504;2023-09-30T00:29:14;3.77;;;1.07;;
24409;SDS011;12543;53.364;-1.504;2023-09-30T00:31:44;3.55;;;1.17;;
24409;SDS011;12543;53.364;-1.504;2023-09-30T00:34:12;3.75;;;0.85;;
24409;SDS011;12543;53.364;-1.504;2023-09-30T00:36:40;6.32;;;1.23;;
24409;SDS011;12543;53.364;-1.504;2023-09-30T00:39:08;3.07;;;1.00;;
24409;SDS011;12543;53.364;-1.504;2023-09-30T00:41:38;4.38;;;1.10;;
24409;SDS011;12543;53.364;-1.504;2023-09-30T00:44:06;2.03;;;0.70;;
24409;SDS011;12543;53.364;-1.504;2023-09-30T00:46:38;5.97;;;1.33;;
24409;SDS011;12543;53.364;-1.504;2023-09-30T00:49:08;5.85;;;1.38;;
24409;SDS011;12543;53.364;-1.504;2023-09-30T00:51:37;4.18;;;1.30;;
24409;SDS011;12543;53.364;-1.504;2023-09-30T00:54:04;3.97;;;1.20;;
24409;SDS011;12543;53.364;-1.504;2023-09-30T00:56:32;5.72;;;1.38;;
24409;SDS011;12543;53.364;-1.504;2023-09-30T00:59:01;3.45;;;1.20;;
24409;SDS011;12543;53.364;-1.504;2023-09-30T01:01:28;4.60;;;1.23;;
24409;SDS011;12543;53.364;-1.504;2023-09-30T01:03:56;1.77;;;0.90;;
24409;SDS011;12543;53.364;-1.504;2023-09-30T01:06:26;4.88;;;1.10;;
24409;SDS011;12543;53.364;-1.504;2023-09-30T01:08:53;2.07;;;1.03;;
24409;SDS011;12543;53.364;-1.504;2023-09-30T01:11:21;4.07;;;1.03;;
24409;SDS011;12543;53.364;-1.504;2023-09-30T01:13:49;3.45;;;1.00;;
24409;SDS011;12543;53.364;-1.504;2023-09-30T01:16:18;4.00;;;1.13;;
24409;SDS011;12543;53.364;-1.504;2023-09-30T01:18:46;1.77;;;0.70;;
24409;SDS011;12543;53.364;-1.504;2023-09-30T01:21:13;3.80;;;1.00;;
24409;SDS011;12543;53.364;-1.504;2023-09-30T01:23:41;4.05;;;1.25;;
24409;SDS011;12543;53.364;-1.504;2023-09-30T01:26:12;5.35;;;1.35;;
24409;SDS011;12543;53.364;-1.504;2023-09-30T01:28:40;3.58;;;1.23;;
24409;SDS011;12543;53.364;-1.504;2023-09-30T01:33:36;2.63;;;0.98;;
24409;SDS011;12543;53.364;-1.504;2023-09-30T01:36:05;3.90;;;1.05;;
24409;SDS011;12543;53.364;-1.504;2023-09-30T01:38:33;5.15;;;1.25;;
24409;SDS011;12543;53.364;-1.504;2023-09-30T01:41:00;3.95;;;1.42;;
24409;SDS011;12543;53.364;-1.504;2023-09-30T01:43:28;3.55;;;0.80;;
24409;SDS011;12543;53.364;-1.504;2023-09-30T01:45:56;5.25;;;1.23;;
24409;SDS011;12543;53.364;-1.504;2023-09-30T01:50:52;5.43;;;1.30;;
24409;SDS011;12543;53.364;-1.504;2023-09-30T01:53:20;4.23;;;1.30;;
24409;SDS011;12543;53.364;-1.504;2023-09-30T01:55:47;2.93;;;1.07;;
24409;SDS011;12543;53.364;-1.504;2023-09-30T01:58:15;5.15;;;1.20;;
24409;SDS011;12543;53.364;-1.504;2023-09-30T02:00:42;2.95;;;1.05;;
24409;SDS011;12543;53.364;-1.504;2023-09-30T02:03:12;2.03;;;1.00;;
24409;SDS011;12543;53.364;-1.504;2023-09-30T02:05:39;2.92;;;1.02;;
24409;SDS011;12543;53.364;-1.504;2023-09-30T02:08:07;3.25;;;1.10;;
24409;SDS011;12543;53.364;-1.504;2023-09-30T02:10:35;4.00;;;1.25;;
24409;SDS011;12543;53.364;-1.504;2023-09-30T02:13:03;3.00;;;1.05;;
24409;SDS011;12543;53.364;-1.504;2023-09-30T02:15:33;2.50;;;0.90;;
24409;SDS011;12543;53.364;-1.504;2023-09-30T02:18:01;3.80;;;0.90;;
24409;SDS011;12543;53.364;-1.504;2023-09-30T02:20:30;4.65;;;1.25;;
24409;SDS011;12543;53.364;-1.504;2023-09-30T02:22:58;4.72;;;1.23;;
24409;SDS011;12543;53.364;-1.504;2023-09-30T02:25:29;2.58;;;0.90;;
24409;SDS011;12543;53.364;-1.504;2023-09-30T02:27:57;4.47;;;1.30;;
24409;SDS011;12543;53.364;-1.504;2023-09-30T02:30:25;3.92;;;1.10;;
24409;SDS011;12543;53.364;-1.504;2023-09-30T02:32:54;2.78;;;1.25;;
24409;SDS011;12543;53.364;-1.504;2023-09-30T02:35:25;3.58;;;1.27;;
24409;SDS011;12543;53.364;-1.504;2023-09-30T02:37:53;4.37;;;1.00;;
24409;SDS011;12543;53.364;-1.504;2023-09-30T02:40:21;4.15;;;1.30;;
24409;SDS011;12543;53.364;-1.504;2023-09-30T02:42:51;4.13;;;1.10;;
24409;SDS011;12543;53.364;-1.504;2023-09-30T02:45:19;5.07;;;1.42;;
24409;SDS011;12543;53.364;-1.504;2023-09-30T02:47:47;4.03;;;1.10;;
24409;SDS011;12543;53.364;-1.504;2023-09-30T02:50:15;3.97;;;1.27;;
24409;SDS011;12543;53.364;-1.504;2023-09-30T02:52:42;2.58;;;1.00;;
24409;SDS011;12543;53.364;-1.504;2023-09-30T02:55:10;2.47;;;1.00;;
24409;SDS011;12543;53.364;-1.504;2023-09-30T02:57:38;2.63;;;1.20;;
24409;SDS011;12543;53.364;-1.504;2023-09-30T03:00:06;3.83;;;1.05;;
24409;SDS011;12543;53.364;-1.504;2023-09-30T03:02:51;4.43;;;1.30;;
24409;SDS011;12543;53.364;-1.504;2023-09-30T03:05:19;1.98;;;0.90;;
24409;SDS011;12543;53.364;-1.504;2023-09-30T03:07:47;3.50;;;1.00;;
24409;SDS011;12543;53.364;-1.504;2023-09-30T03:10:17;4.32;;;1.00;;
24409;SDS011;12543;53.364;-1.504;2023-09-30T03:12:50;3.25;;;1.33;;
24409;SDS011;12543;53.364;-1.504;2023-09-30T03:15:18;7.03;;;1.45;;
24409;SDS011;12543;53.364;-1.504;2023-09-30T03:17:46;1.83;;;0.82;;
24409;SDS011;12543;53.364;-1.504;2023-09-30T03:20:18;4.03;;;1.15;;
24409;SDS011;12543;53.364;-1.504;2023-09-30T03:22:47;4.63;;;1.20;;
24409;SDS011;12543;53.364;-1.504;2023-09-30T03:25:15;4.50;;;1.00;;
24409;SDS011;12543;53.364;-1.504;2023-09-30T03:27:44;7.35;;;1.35;;
24409;SDS011;12543;53.364;-1.504;2023-09-30T03:30:13;5.72;;;1.30;;
24409;SDS011;12543;53.364;-1.504;2023-09-30T03:32:42;2.72;;;1.35;;
24409;SDS011;12543;53.364;-1.504;2023-09-30T03:35:10;2.75;;;1.10;;
24409;SDS011;12543;53.364;-1.504;2023-09-30T03:37:41;4.75;;;1.30;;
24409;SDS011;12543;53.364;-1.504;2023-09-30T03:40:09;3.97;;;1.20;;
24409;SDS011;12543;53.364;-1.504;2023-09-30T03:42:41;5.82;;;1.10;;
24409;SDS011;12543;53.364;-1.504;2023-09-30T03:45:09;4.25;;;1.45;;
24409;SDS011;12543;53.364;-1.504;2023-09-30T03:47:37;4.13;;;1.10;;
24409;SDS011;12543;53.364;-1.504;2023-09-30T03:50:05;4.10;;;1.50;;
24409;SDS011;12543;53.364;-1.504;2023-09-30T03:52:41;3.80;;;0.95;;
24409;SDS011;12543;53.364;-1.504;2023-09-30T03:55:13;2.92;;;1.00;;
24409;SDS011;12543;53.364;-1.504;2023-09-30T03:57:48;3.25;;;1.08;;
24409;SDS011;12543;53.364;-1.504;2023-09-30T04:00:16;2.35;;;1.00;;
24409;SDS011;12543;53.364;-1.504;2023-09-30T04:02:47;2.20;;;1.00;;
24409;SDS011;12543;53.364;-1.504;2023-09-30T04:05:18;3.97;;;1.10;;
24409;SDS011;12543;53.364;-1.504;2023-09-30T04:07:46;4.80;;;1.13;;
24409;SDS011;12543;53.364;-1.504;2023-09-30T04:10:14;3.28;;;1.00;;
24409;SDS011;12543;53.364;-1.504;2023-09-30T04:12:43;2.28;;;0.95;;
24409;SDS011;12543;53.364;-1.504;2023-09-30T04:15:11;4.95;;;1.67;;
24409;SDS011;12543;53.364;-1.504;2023-09-30T04:17:39;4.22;;;2.10;;
24409;SDS011;12543;53.364;-1.504;2023-09-30T04:20:07;7.40;;;2.37;;
24409;SDS011;12543;53.364;-1.504;2023-09-30T04:22:37;5.28;;;2.03;;
24409;SDS011;12543;53.364;-1.504;2023-09-30T04:25:05;5.50;;;1.95;;
24409;SDS011;12543;53.364;-1.504;2023-09-30T04:27:36;5.43;;;1.80;;
24409;SDS011;12543;53.364;-1.504;2023-09-30T04:30:04;7.55;;;1.90;;
24409;SDS011;12543;53.364;-1.504;2023-09-30T04:32:35;1.92;;;1.17;;
24409;SDS011;12543;53.364;-1.504;2023-09-30T04:35:06;7.80;;;1.80;;
24409;SDS011;12543;53.364;-1.504;2023-09-30T04:37:34;3.30;;;1.58;;
24409;SDS011;12543;53.364;-1.504;2023-09-30T04:40:07;2.20;;;1.08;;
24409;SDS011;12543;53.364;-1.504;2023-09-30T04:42:47;4.22;;;1.20;;
24409;SDS011;12543;53.364;-1.504;2023-09-30T04:45:15;3.28;;;1.08;;
24409;SDS011;12543;53.364;-1.504;2023-09-30T04:47:43;3.90;;;1.60;;
24409;SDS011;12543;53.364;-1.504;2023-09-30T04:50:11;4.38;;;1.33;;
24409;SDS011;12543;53.364;-1.504;2023-09-30T04:52:42;2.10;;;0.90;;
24409;SDS011;12543;53.364;-1.504;2023-09-30T04:55:12;2.22;;;0.90;;
24409;SDS011;12543;53.364;-1.504;2023-09-30T04:57:43;3.58;;;1.30;;
24409;SDS011;12543;53.364;-1.504;2023-09-30T05:00:12;3.35;;;1.25;;
24409;SDS011;12543;53.364;-1.504;2023-09-30T05:02:40;3.85;;;1.10;;
24409;SDS011;12543;53.364;-1.504;2023-09-30T05:05:08;5.50;;;1.13;;
24409;SDS011;12543;53.364;-1.504;2023-09-30T05:07:35;3.80;;;1.33;;
24409;SDS011;12543;53.364;-1.504;2023-09-30T05:10:06;3.65;;;1.30;;
24409;SDS011;12543;53.364;-1.504;2023-09-30T05:12:37;3.72;;;0.90;;
24409;SDS011;12543;53.364;-1.504;2023-09-30T05:15:05;2.90;;;1.10;;
24409;SDS011;12543;53.364;-1.504;2023-09-30T05:17:32;5.55;;;1.00;;
24409;SDS011;12543;53.364;-1.504;2023-09-30T05:20:01;3.23;;;1.20;;
24409;SDS011;12543;53.364;-1.504;2023-09-30T05:22:33;3.13;;;1.30;;
24409;SDS011;12543;53.364;-1.504;2023-09-30T05:27:28;4.28;;;1.33;;
24409;SDS011;12543;53.364;-1.504;2023-09-30T05:29:55;4.87;;;1.33;;
24409;SDS011;12543;53.364;-1.504;2023-09-30T05:32:23;3.53;;;1.05;;
24409;SDS011;12543;53.364;-1.504;2023-09-30T05:34:53;3.33;;;1.25;;
24409;SDS011;12543;53.364;-1.504;2023-09-30T05:37:21;4.30;;;1.23;;
24409;SDS011;12543;53.364;-1.504;2023-09-30T05:39:48;4.53;;;1.10;;
24409;SDS011;12543;53.364;-1.504;2023-09-30T05:42:16;3.42;;;0.95;;
24409;SDS011;12543;53.364;-1.504;2023-09-30T05:44:45;1.90;;;0.90;;
24409;SDS011;12543;53.364;-1.504;2023-09-30T05:47:12;3.67;;;1.40;;
24409;SDS011;12543;53.364;-1.504;2023-09-30T05:49:41;3.78;;;1.35;;
24409;SDS011;12543;53.364;-1.504;2023-09-30T05:52:09;4.38;;;1.35;;
24409;SDS011;12543;53.364;-1.504;2023-09-30T05:54:36;3.60;;;1.10;;
24409;SDS011;12543;53.364;-1.504;2023-09-30T05:57:04;2.58;;;0.98;;
24409;SDS011;12543;53.364;-1.504;2023-09-30T05:59:32;3.67;;;1.35;;
24409;SDS011;12543;53.364;-1.504;2023-09-30T06:01:59;3.13;;;1.17;;
24409;SDS011;12543;53.364;-1.504;2023-09-30T06:04:27;4.53;;;1.60;;
24409;SDS011;12543;53.364;-1.504;2023-09-30T06:06:54;3.83;;;1.30;;
24409;SDS011;12543;53.364;-1.504;2023-09-30T06:09:23;3.10;;;1.23;;
24409;SDS011;12543;53.364;-1.504;2023-09-30T06:11:51;4.38;;;1.30;;
24409;SDS011;12543;53.364;-1.504;2023-09-30T06:14:19;2.80;;;1.30;;
24409;SDS011;12543;53.364;-1.504;2023-09-30T06:16:46;2.33;;;1.00;;
24409;SDS011;12543;53.364;-1.504;2023-09-30T06:19:14;5.13;;;1.20;;
24409;SDS011;12543;53.364;-1.504;2023-09-30T06:21:42;3.92;;;1.17;;
24409;SDS011;12543;53.364;-1.504;2023-09-30T06:24:09;4.40;;;1.50;;
24409;SDS011;12543;53.364;-1.504;2023-09-30T06:26:37;7.72;;;2.13;;
24409;SDS011;12543;53.364;-1.504;2023-09-30T06:29:05;4.03;;;1.20;;
24409;SDS011;12543;53.364;-1.504;2023-09-30T06:31:33;3.72;;;1.23;;
24409;SDS011;12543;53.364;-1.504;2023-09-30T06:34:01;2.07;;;1.20;;
24409;SDS011;12543;53.364;-1.504;2023-09-30T06:36:28;2.40;;;1.23;;
24409;SDS011;12543;53.364;-1.504;2023-09-30T06:38:56;2.03;;;1.00;;
24409;SDS011;12543;53.364;-1.504;2023-09-30T06:41:25;1.85;;;1.13;;
24409;SDS011;12543;53.364;-1.504;2023-09-30T06:43:52;2.83;;;1.08;;
24409;SDS011;12543;53.364;-1.504;2023-09-30T06:46:20;2.70;;;1.17;;
24409;SDS011;12543;53.364;-1.504;2023-09-30T06:48:48;3.43;;;1.40;;
24409;SDS011;12543;53.364;-1.504;2023-09-30T06:51:18;5.47;;;1.90;;
24409;SDS011;12543;53.364;-1.504;2023-09-30T06:53:46;3.23;;;1.03;;
24409;SDS011;12543;53.364;-1.504;2023-09-30T06:56:13;6.47;;;1.50;;
24409;SDS011;12543;53.364;-1.504;2023-09-30T06:58:41;3.88;;;0.82;;
24409;SDS011;12543;53.364;-1.504;2023-09-30T07:01:09;4.33;;;1.50;;
24409;SDS011;12543;53.364;-1.504;2023-09-30T07:03:43;3.00;;;1.00;;
24409;SDS011;12543;53.364;-1.504;2023-09-30T07:06:11;2.50;;;0.95;;
24409;SDS011;12543;53.364;-1.504;2023-09-30T07:08:38;1.00;;;0.90;;
24409;SDS011;12543;53.364;-1.504;2023-09-30T07:11:06;2.95;;;1.40;;
24409;SDS011;12543;53.364;-1.504;2023-09-30T07:13:34;5.80;;;1.23;;
24409;SDS011;12543;53.364;-1.504;2023-09-30T07:16:05;1.63;;;1.35;;
24409;SDS011;12543;53.364;-1.504;2023-09-30T07:18:32;3.00;;;1.20;;
24409;SDS011;12543;53.364;-1.504;2023-09-30T07:21:00;2.07;;;1.00;;
24409;SDS011;12543;53.364;-1.504;2023-09-30T07:23:29;1.83;;;1.05;;
24409;SDS011;12543;53.364;-1.504;2023-09-30T07:25:58;2.40;;;1.15;;
24409;SDS011;12543;53.364;-1.504;2023-09-30T07:28:26;3.97;;;1.00;;
24409;SDS011;12543;53.364;-1.504;2023-09-30T07:30:53;1.73;;;0.95;;
24409;SDS011;12543;53.364;-1.504;2023-09-30T07:33:21;1.65;;;0.80;;
24409;SDS011;12543;53.364;-1.504;2023-09-30T07:35:49;2.38;;;0.82;;
24409;SDS011;12543;53.364;-1.504;2023-09-30T07:38:16;1.77;;;1.00;;
24409;SDS011;12543;53.364;-1.504;2023-09-30T07:40:44;3.20;;;1.13;;
24409;SDS011;12543;53.364;-1.504;2023-09-30T07:43:12;1.57;;;0.90;;
24409;SDS011;12543;53.364;-1.504;2023-09-30T07:45:39;1.20;;;0.93;;
24409;SDS011;12543;53.364;-1.504;2023-09-30T07:48:10;2.15;;;0.98;;
24409;SDS011;12543;53.364;-1.504;2023-09-30T07:50:39;1.85;;;0.95;;
24409;SDS011;12543;53.364;-1.504;2023-09-30T07:53:09;3.45;;;1.48;;
24409;SDS011;12543;53.364;-1.504;2023-09-30T07:55:38;2.33;;;1.15;;
24409;SDS011;12543;53.364;-1.504;2023-09-30T07:58:06;1.87;;;1.03;;
24409;SDS011;12543;53.364;-1.504;2023-09-30T08:00:34;2.85;;;1.25;;
24409;SDS011;12543;53.364;-1.504;2023-09-30T08:03:02;2.27;;;1.33;;
24409;SDS011;12543;53.364;-1.504;2023-09-30T08:05:30;5.10;;;1.45;;
24409;SDS011;12543;53.364;-1.504;2023-09-30T08:07:57;2.80;;;1.13;;
24409;SDS011;12543;53.364;-1.504;2023-09-30T08:10:27;2.75;;;1.00;;
24409;SDS011;12543;53.364;-1.504;2023-09-30T08:12:56;3.35;;;1.45;;
24409;SDS011;12543;53.364;-1.504;2023-09-30T08:17:52;2.90;;;1.20;;
24409;SDS011;12543;53.364;-1.504;2023-09-30T08:20:20;4.07;;;1.38;;
24409;SDS011;12543;53.364;-1.504;2023-09-30T08:22:47;5.13;;;1.73;;
24409;SDS011;12543;53.364;-1.504;2023-09-30T08:25:16;6.78;;;1.50;;
24409;SDS011;12543;53.364;-1.504;2023-09-30T08:27:43;6.07;;;1.73;;
24409;SDS011;12543;53.364;-1.504;2023-09-30T08:30:16;5.93;;;2.03;;
24409;SDS011;12543;53.364;-1.504;2023-09-30T08:32:44;3.97;;;1.13;;
24409;SDS011;12543;53.364;-1.504;2023-09-30T08:35:13;3.17;;;1.20;;
24409;SDS011;12543;53.364;-1.504;2023-09-30T08:37:42;2.85;;;1.20;;
24409;SDS011;12543;53.364;-1.504;2023-09-30T08:40:09;3.38;;;1.65;;
24409;SDS011;12543;53.364;-1.504;2023-09-30T08:42:38;2.53;;;1.48;;
24409;SDS011;12543;53.364;-1.504;2023-09-30T08:45:07;2.50;;;1.20;;
24409;SDS011;12543;53.364;-1.504;2023-09-30T08:47:36;2.08;;;1.05;;
24409;SDS011;12543;53.364;-1.504;2023-09-30T08:50:06;4.70;;;1.17;;
24409;SDS011;12543;53.364;-1.504;2023-09-30T08:52:40;4.72;;;1.50;;
24409;SDS011;12543;53.364;-1.504;2023-09-30T08:55:10;2.20;;;1.13;;
24409;SDS011;12543;53.364;-1.504;2023-09-30T09:00:06;4.28;;;1.20;;
24409;SDS011;12543;53.364;-1.504;2023-09-30T09:02:35;3.60;;;1.10;;
24409;SDS011;12543;53.364;-1.504;2023-09-30T09:05:03;2.10;;;0.90;;
24409;SDS011;12543;53.364;-1.504;2023-09-30T09:07:30;3.10;;;1.10;;
24409;SDS011;12543;53.364;-1.504;2023-09-30T09:10:09;2.00;;;0.98;;
24409;SDS011;12543;53.364;-1.504;2023-09-30T09:12:41;3.47;;;0.88;;
24409;SDS011;12543;53.364;-1.504;2023-09-30T09:15:20;4.15;;;0.95;;
24409;SDS011;12543;53.364;-1.504;2023-09-30T09:17:48;5.32;;;1.15;;
24409;SDS011;12543;53.364;-1.504;2023-09-30T09:20:18;4.43;;;0.95;;
24409;SDS011;12543;53.364;-1.504;2023-09-30T09:22:50;5.20;;;1.20;;
24409;SDS011;12543;53.364;-1.504;2023-09-30T09:25:20;3.95;;;1.00;;
24409;SDS011;12543;53.364;-1.504;2023-09-30T09:27:51;1.85;;;0.88;;
24409;SDS011;12543;53.364;-1.504;2023-09-30T09:30:21;3.95;;;1.15;;
24409;SDS011;12543;53.364;-1.504;2023-09-30T09:32:59;4.30;;;1.05;;
24409;SDS011;12543;53.364;-1.504;2023-09-30T09:35:27;5.35;;;1.13;;
24409;SDS011;12543;53.364;-1.504;2023-09-30T09:40:29;3.78;;;1.10;;
24409;SDS011;12543;53.364;-1.504;2023-09-30T09:42:57;1.90;;;1.00;;
24409;SDS011;12543;53.364;-1.504;2023-09-30T09:45:35;3.78;;;1.00;;
24409;SDS011;12543;53.364;-1.504;2023-09-30T09:48:04;4.50;;;0.90;;
24409;SDS011;12543;53.364;-1.504;2023-09-30T09:50:34;3.22;;;0.98;;
24409;SDS011;12543;53.364;-1.504;2023-09-30T09:53:05;2.55;;;0.70;;
24409;SDS011;12543;53.364;-1.504;2023-09-30T09:55:33;1.60;;;0.68;;
24409;SDS011;12543;53.364;-1.504;2023-09-30T09:58:01;2.65;;;1.02;;
24409;SDS011;12543;53.364;-1.504;2023-09-30T10:02:58;5.28;;;1.23;;
24409;SDS011;12543;53.364;-1.504;2023-09-30T10:07:56;2.78;;;1.13;;
24409;SDS011;12543;53.364;-1.504;2023-09-30T10:10:25;4.70;;;0.85;;
24409;SDS011;12543;53.364;-1.504;2023-09-30T10:12:53;3.95;;;1.05;;
24409;SDS011;12543;53.364;-1.504;2023-09-30T10:18:01;4.97;;;1.77;;
24409;SDS011;12543;53.364;-1.504;2023-09-30T10:20:30;4.22;;;1.15;;
24409;SDS011;12543;53.364;-1.504;2023-09-30T10:25:35;3.22;;;1.10;;
24409;SDS011;12543;53.364;-1.504;2023-09-30T10:31:11;5.00;;;1.00;;
24409;SDS011;12543;53.364;-1.504;2023-09-30T10:34:26;3.08;;;1.05;;
24409;SDS011;12543;53.364;-1.504;2023-09-30T10:36:28;3.05;;;0.93;;
24409;SDS011;12543;53.364;-1.504;2023-09-30T10:38:56;4.10;;;1.23;;
24409;SDS011;12543;53.364;-1.504;2023-09-30T10:46:53;5.90;;;1.75;;
24409;SDS011;12543;53.364;-1.504;2023-09-30T10:51:58;4.00;;;1.20;;
24409;SDS011;12543;53.364;-1.504;2023-09-30T10:54:31;4.20;;;1.00;;
24409;SDS011;12543;53.364;-1.504;2023-09-30T10:56:59;3.55;;;0.98;;
24409;SDS011;12543;53.364;-1.504;2023-09-30T10:59:30;4.20;;;1.00;;
24409;SDS011;12543;53.364;-1.504;2023-09-30T11:01:59;4.07;;;1.02;;
24409;SDS011;12543;53.364;-1.504;2023-09-30T11:06:55;4.15;;;1.15;;
24409;SDS011;12543;53.364;-1.504;2023-09-30T11:09:23;2.78;;;1.10;;
24409;SDS011;12543;53.364;-1.504;2023-09-30T11:11:51;3.65;;;1.77;;
24409;SDS011;12543;53.364;-1.504;2023-09-30T11:16:51;3.97;;;1.40;;
24409;SDS011;12543;53.364;-1.504;2023-09-30T11:19:19;2.17;;;1.25;;
24409;SDS011;12543;53.364;-1.504;2023-09-30T11:21:48;4.45;;;1.35;;
24409;SDS011;12543;53.364;-1.504;2023-09-30T11:24:16;5.57;;;1.73;;
24409;SDS011;12543;53.364;-1.504;2023-09-30T11:26:47;3.20;;;1.17;;
24409;SDS011;12543;53.364;-1.504;2023-09-30T11:29:16;3.80;;;1.17;;
24409;SDS011;12543;53.364;-1.504;2023-09-30T11:31:47;4.18;;;1.08;;
24409;SDS011;12543;53.364;-1.504;2023-09-30T11:34:15;2.92;;;1.23;;
24409;SDS011;12543;53.364;-1.504;2023-09-30T11:36:50;5.05;;;1.23;;
24409;SDS011;12543;53.364;-1.504;2023-09-30T11:39:25;3.45;;;1.13;;
24409;SDS011;12543;53.364;-1.504;2023-09-30T11:41:54;1.38;;;0.90;;
24409;SDS011;12543;53.364;-1.504;2023-09-30T11:44:24;2.75;;;0.90;;
24409;SDS011;12543;53.364;-1.504;2023-09-30T11:46:58;3.22;;;0.70;;
24409;SDS011;12543;53.364;-1.504;2023-09-30T11:51:56;4.40;;;0.90;;
24409;SDS011;12543;53.364;-1.504;2023-09-30T11:54:35;3.28;;;1.08;;
24409;SDS011;12543;53.364;-1.504;2023-09-30T11:57:14;2.05;;;1.13;;
24409;SDS011;12543;53.364;-1.504;2023-09-30T11:59:44;4.75;;;1.00;;
24409;SDS011;12543;53.364;-1.504;2023-09-30T12:02:12;6.72;;;1.63;;
24409;SDS011;12543;53.364;-1.504;2023-09-30T12:04:42;5.07;;;1.30;;
24409;SDS011;12543;53.364;-1.504;2023-09-30T12:07:11;5.68;;;1.40;;
24409;SDS011;12543;53.364;-1.504;2023-09-30T12:09:39;3.42;;;1.23;;
24409;SDS011;12543;53.364;-1.504;2023-09-30T12:12:08;6.22;;;1.45;;
24409;SDS011;12543;53.364;-1.504;2023-09-30T12:14:37;5.15;;;1.80;;
24409;SDS011;12543;53.364;-1.504;2023-09-30T12:17:04;3.08;;;1.30;;
24409;SDS011;12543;53.364;-1.504;2023-09-30T12:19:32;7.97;;;1.67;;
24409;SDS011;12543;53.364;-1.504;2023-09-30T12:22:00;7.30;;;1.70;;
24409;SDS011;12543;53.364;-1.504;2023-09-30T12:24:28;4.68;;;1.38;;
24409;SDS011;12543;53.364;-1.504;2023-09-30T12:26:56;4.10;;;1.30;;
24409;SDS011;12543;53.364;-1.504;2023-09-30T12:29:24;2.80;;;1.23;;
24409;SDS011;12543;53.364;-1.504;2023-09-30T12:31:52;3.28;;;1.10;;
24409;SDS011;12543;53.364;-1.504;2023-09-30T12:34:21;9.77;;;1.67;;
24409;SDS011;12543;53.364;-1.504;2023-09-30T12:36:54;3.72;;;1.10;;
24409;SDS011;12543;53.364;-1.504;2023-09-30T12:39:26;4.28;;;1.33;;
24409;SDS011;12543;53.364;-1.504;2023-09-30T12:41:57;3.75;;;1.50;;
24409;SDS011;12543;53.364;-1.504;2023-09-30T12:44:25;6.47;;;1.70;;
24409;SDS011;12543;53.364;-1.504;2023-09-30T12:46:52;6.05;;;2.00;;
24409;SDS011;12543;53.364;-1.504;2023-09-30T12:49:20;4.10;;;1.50;;
24409;SDS011;12543;53.364;-1.504;2023-09-30T12:51:48;5.18;;;1.73;;
24409;SDS011;12543;53.364;-1.504;2023-09-30T12:54:15;6.00;;;1.98;;
24409;SDS011;12543;53.364;-1.504;2023-09-30T12:56:45;6.65;;;2.20;;
24409;SDS011;12543;53.364;-1.504;2023-09-30T12:59:14;3.38;;;1.52;;
24409;SDS011;12543;53.364;-1.504;2023-09-30T13:01:43;4.63;;;1.63;;
24409;SDS011;12543;53.364;-1.504;2023-09-30T13:04:11;4.35;;;1.60;;
24409;SDS011;12543;53.364;-1.504;2023-09-30T13:06:39;6.10;;;1.92;;
24409;SDS011;12543;53.364;-1.504;2023-09-30T13:09:07;4.88;;;1.50;;
24409;SDS011;12543;53.364;-1.504;2023-09-30T13:11:35;5.55;;;1.63;;
24409;SDS011;12543;53.364;-1.504;2023-09-30T13:14:04;3.90;;;1.33;;
24409;SDS011;12543;53.364;-1.504;2023-09-30T13:16:32;4.53;;;1.67;;
24409;SDS011;12543;53.364;-1.504;2023-09-30T13:18:59;4.43;;;1.95;;
24409;SDS011;12543;53.364;-1.504;2023-09-30T13:21:28;5.18;;;1.80;;
24409;SDS011;12543;53.364;-1.504;2023-09-30T13:23:57;3.65;;;1.52;;
24409;SDS011;12543;53.364;-1.504;2023-09-30T13:26:24;5.67;;;2.40;;
24409;SDS011;12543;53.364;-1.504;2023-09-30T13:28:52;4.73;;;1.93;;
24409;SDS011;12543;53.364;-1.504;2023-09-30T13:31:19;3.60;;;2.03;;
24409;SDS011;12543;53.364;-1.504;2023-09-30T13:33:50;4.75;;;2.10;;
24409;SDS011;12543;53.364;-1.504;2023-09-30T13:36:17;4.13;;;2.40;;
24409;SDS011;12543;53.364;-1.504;2023-09-30T13:38:45;3.50;;;2.00;;
24409;SDS011;12543;53.364;-1.504;2023-09-30T13:41:12;3.05;;;1.58;;
24409;SDS011;12543;53.364;-1.504;2023-09-30T13:43:40;4.00;;;1.60;;
24409;SDS011;12543;53.364;-1.504;2023-09-30T13:46:07;4.00;;;1.80;;
24409;SDS011;12543;53.364;-1.504;2023-09-30T13:48:35;3.28;;;1.58;;
24409;SDS011;12543;53.364;-1.504;2023-09-30T13:51:06;5.45;;;1.48;;
24409;SDS011;12543;53.364;-1.504;2023-09-30T13:53:34;4.85;;;1.35;;
24409;SDS011;12543;53.364;-1.504;2023-09-30T13:56:02;2.43;;;1.10;;
24409;SDS011;12543;53.364;-1.504;2023-09-30T13:58:30;5.28;;;2.03;;
24409;SDS011;12543;53.364;-1.504;2023-09-30T14:00:57;3.97;;;1.40;;
24409;SDS011;12543;53.364;-1.504;2023-09-30T14:03:25;4.55;;;1.50;;
24409;SDS011;12543;53.364;-1.504;2023-09-30T14:05:53;6.57;;;1.80;;
24409;SDS011;12543;53.364;-1.504;2023-09-30T14:08:22;4.93;;;1.58;;
24409;SDS011;12543;53.364;-1.504;2023-09-30T14:10:51;2.58;;;1.25;;
24409;SDS011;12543;53.364;-1.504;2023-09-30T14:13:18;5.77;;;1.80;;
24409;SDS011;12543;53.364;-1.504;2023-09-30T14:15:46;4.47;;;1.40;;
24409;SDS011;12543;53.364;-1.504;2023-09-30T14:18:13;3.53;;;1.45;;
24409;SDS011;12543;53.364;-1.504;2023-09-30T14:20:41;6.95;;;1.67;;
24409;SDS011;12543;53.364;-1.504;2023-09-30T14:23:09;3.38;;;1.33;;
24409;SDS011;12543;53.364;-1.504;2023-09-30T14:25:37;4.53;;;1.40;;
24409;SDS011;12543;53.364;-1.504;2023-09-30T14:28:04;3.13;;;1.30;;
24409;SDS011;12543;53.364;-1.504;2023-09-30T14:30:32;4.53;;;1.65;;
24409;SDS011;12543;53.364;-1.504;2023-09-30T14:33:00;5.68;;;2.00;;
24409;SDS011;12543;53.364;-1.504;2023-09-30T14:35:28;7.88;;;2.20;;
24409;SDS011;12543;53.364;-1.504;2023-09-30T14:37:56;4.93;;;2.53;;
24409;SDS011;12543;53.364;-1.504;2023-09-30T14:40:23;4.38;;;2.08;;
24409;SDS011;12543;53.364;-1.504;2023-09-30T14:42:51;3.45;;;1.65;;
24409;SDS011;12543;53.364;-1.504;2023-09-30T14:47:48;4.32;;;2.00;;
24409;SDS011;12543;53.364;-1.504;2023-09-30T14:50:16;5.03;;;1.97;;
24409;SDS011;12543;53.364;-1.504;2023-09-30T14:52:43;4.17;;;1.90;;
24409;SDS011;12543;53.364;-1.504;2023-09-30T14:55:11;5.37;;;2.77;;
24409;SDS011;12543;53.364;-1.504;2023-09-30T14:57:38;5.00;;;1.97;;
24409;SDS011;12543;53.364;-1.504;2023-09-30T15:00:06;4.80;;;1.98;;
24409;SDS011;12543;53.364;-1.504;2023-09-30T15:02:34;5.47;;;2.03;;
24409;SDS011;12543;53.364;-1.504;2023-09-30T15:05:05;2.88;;;1.80;;
24409;SDS011;12543;53.364;-1.504;2023-09-30T15:07:33;3.50;;;1.80;;
24409;SDS011;12543;53.364;-1.504;2023-09-30T15:10:04;3.60;;;1.65;;
24409;SDS011;12543;53.364;-1.504;2023-09-30T15:14:59;2.67;;;1.70;;
24409;SDS011;12543;53.364;-1.504;2023-09-30T15:17:27;3.07;;;1.80;;
24409;SDS011;12543;53.364;-1.504;2023-09-30T15:19:57;2.85;;;1.63;;
24409;SDS011;12543;53.364;-1.504;2023-09-30T15:22:26;3.65;;;1.77;;
24409;SDS011;12543;53.364;-1.504;2023-09-30T15:24:53;3.17;;;1.70;;
24409;SDS011;12543;53.364;-1.504;2023-09-30T15:27:21;5.30;;;2.25;;
24409;SDS011;12543;53.364;-1.504;2023-09-30T15:29:49;4.25;;;2.28;;
24409;SDS011;12543;53.364;-1.504;2023-09-30T15:32:16;2.58;;;1.75;;